Time;durP1;ratioP1;P1;durP2;ratioP2;P2;SDS_P1;SDS_P2;PMS_P1;PMS_P2;Temp;Humidity;BMP_temperature;BMP_pressure;BME280_temperature;BME280_humidity;BME280_pressure;Samples;Min_cycle;Max_cycle;Signal;HPM_P1;HPM_P2
2021/09/17 00:02:18;;;;;;;17.15;11.45;;;;;;;13.55;85.25;101526.44;5006019;28;20107;-77
2021/09/17 00:04:43;;;;;;;21.95;12.73;;;;;;;13.57;84.98;101528.91;5020502;28;20033;-78
2021/09/17 00:07:09;;;;;;;15.18;10.80;;;;;;;13.52;85.34;101529.38;5013640;28;20029;-79
2021/09/17 00:09:34;;;;;;;19.83;12.45;;;;;;;13.52;85.30;101525.94;5001438;28;20071;-78
2021/09/17 00:12:01;;;;;;;23.42;12.50;;;;;;;13.50;85.32;101533.13;5013011;28;20037;-78
2021/09/17 00:14:28;;;;;;;20.48;12.73;;;;;;;13.48;85.48;101530.66;5013805;28;20029;-79
2021/09/17 00:16:54;;;;;;;17.33;11.27;;;;;;;13.47;85.17;101526.44;5010556;28;20044;-79
2021/09/17 00:19:19;;;;;;;20.27;12.18;;;;;;;13.48;85.41;101525.44;5005984;28;20025;-79
2021/09/17 00:21:45;;;;;;;20.75;11.93;;;;;;;13.50;85.08;101533.91;5008174;28;20030;-79
2021/09/17 00:24:10;;;;;;;17.17;11.40;;;;;;;13.52;84.64;101523.34;5025518;28;20087;-79
2021/09/17 00:26:36;;;;;;;18.63;11.82;;;;;;;13.51;84.70;101522.53;5004139;28;20037;-79
2021/09/17 00:29:01;;;;;;;21.15;11.68;;;;;;;13.50;84.76;101527.91;5004069;28;20099;-80
2021/09/17 00:31:27;;;;;;;15.43;10.57;;;;;;;13.50;84.91;101525.28;4996735;28;20029;-80
2021/09/17 00:33:52;;;;;;;15.35;10.65;;;;;;;13.47;85.24;101530.81;5009411;28;20721;-80
2021/09/17 00:36:18;;;;;;;17.98;11.00;;;;;;;13.44;85.46;101518.94;5030555;28;20021;-79
2021/09/17 00:38:43;;;;;;;18.17;11.75;;;;;;;13.42;85.48;101516.47;5019125;28;20055;-80
2021/09/17 00:41:11;;;;;;;19.95;11.40;;;;;;;13.43;85.55;101514.72;5030695;28;20037;-78
2021/09/17 00:43:37;;;;;;;18.50;12.32;;;;;;;13.44;85.65;101521.53;5024633;28;20102;-79
2021/09/17 00:46:03;;;;;;;19.08;10.98;;;;;;;13.46;85.65;101508.34;5009753;28;20043;-78
2021/09/17 00:48:28;;;;;;;21.05;13.63;;;;;;;13.47;85.71;101507.38;5012644;28;20037;-78
2021/09/17 00:50:54;;;;;;;20.55;13.85;;;;;;;13.47;85.67;101508.19;5009758;28;20025;-78
2021/09/17 00:53:19;;;;;;;20.08;13.32;;;;;;;13.45;85.72;101507.53;5016242;28;20029;-80
2021/09/17 00:55:45;;;;;;;17.80;12.20;;;;;;;13.44;85.93;101511.91;5009460;28;20041;-78
2021/09/17 00:58:10;;;;;;;21.60;14.38;;;;;;;13.44;86.10;101514.53;5016432;28;20344;-78
2021/09/17 01:00:36;;;;;;;21.00;13.63;;;;;;;13.44;86.16;101514.53;5017401;28;20150;-78
2021/09/17 01:03:01;;;;;;;21.48;14.23;;;;;;;13.45;86.53;101504.94;4999023;28;20029;-78
2021/09/17 01:05:27;;;;;;;22.23;13.30;;;;;;;13.46;86.21;101506.56;5016070;28;20037;-78
2021/09/17 01:07:52;;;;;;;21.30;14.02;;;;;;;13.47;86.04;101516.00;5011700;28;20475;-79
2021/09/17 01:10:18;;;;;;;19.90;14.52;;;;;;;13.46;86.11;101519.56;5000374;28;20418;-80
2021/09/17 01:12:44;;;;;;;21.90;14.38;;;;;;;13.44;86.17;101505.91;5037903;28;20383;-80
2021/09/17 01:15:10;;;;;;;21.80;14.35;;;;;;;13.41;86.41;101507.03;4998379;28;20036;-79
2021/09/17 01:17:39;;;;;;;22.42;15.20;;;;;;;13.41;86.50;101511.41;5014898;28;20038;-80
2021/09/17 01:20:07;;;;;;;22.40;14.68;;;;;;;13.39;86.60;101508.16;5005197;28;20051;-79
2021/09/17 01:22:33;;;;;;;24.02;16.15;;;;;;;13.38;86.68;101499.53;5013214;28;20040;-80
2021/09/17 01:24:59;;;;;;;23.38;14.77;;;;;;;13.41;86.57;101501.00;5022351;28;20124;-79
2021/09/17 01:27:25;;;;;;;26.77;14.55;;;;;;;13.39;86.59;101503.78;5007681;28;20036;-79
2021/09/17 01:29:51;;;;;;;24.55;14.95;;;;;;;13.40;86.50;101504.59;5012248;28;20426;-79
2021/09/17 01:32:17;;;;;;;21.63;14.50;;;;;;;13.43;86.67;101504.28;5002016;28;20080;-78
2021/09/17 01:34:42;;;;;;;25.73;15.25;;;;;;;13.43;86.51;101504.28;4991268;28;20018;-79
2021/09/17 01:37:08;;;;;;;23.88;15.73;;;;;;;13.44;86.29;101496.28;5012859;28;20045;-79
2021/09/17 01:39:33;;;;;;;26.02;14.65;;;;;;;13.47;86.13;101499.53;5011588;28;20124;-79
2021/09/17 01:41:59;;;;;;;24.40;16.42;;;;;;;13.49;86.37;101492.41;5029462;28;20036;-80
2021/09/17 01:44:25;;;;;;;24.40;15.48;;;;;;;13.49;86.11;101488.00;5023069;28;20515;-79
2021/09/17 01:46:50;;;;;;;24.85;15.90;;;;;;;13.50;86.21;101494.84;5028848;28;20041;-79
2021/09/17 01:49:16;;;;;;;26.83;16.95;;;;;;;13.50;86.44;101484.41;5004463;28;20021;-78
2021/09/17 01:51:41;;;;;;;29.58;17.25;;;;;;;13.50;86.47;101481.81;4998764;28;20037;-78
2021/09/17 01:54:07;;;;;;;28.83;17.58;;;;;;;13.53;86.00;101480.69;5019152;28;20060;-78
2021/09/17 01:56:34;;;;;;;26.33;17.67;;;;;;;13.54;86.09;101477.09;5016521;28;20521;-78
2021/09/17 01:59:00;;;;;;;28.75;17.65;;;;;;;13.55;85.85;101465.72;5010995;28;20038;-78
2021/09/17 02:01:26;;;;;;;27.73;17.80;;;;;;;13.56;86.05;101469.94;5018447;28;20437;-78
2021/09/17 02:03:51;;;;;;;27.73;16.25;;;;;;;13.57;85.91;101472.41;4998461;28;20434;-81
2021/09/17 02:06:22;;;;;;;33.42;17.48;;;;;;;13.57;85.90;101472.41;5010543;28;20037;-79
2021/09/17 02:08:48;;;;;;;26.20;16.75;;;;;;;13.57;86.21;101469.78;5012720;28;20033;-80
2021/09/17 02:11:15;;;;;;;24.25;16.23;;;;;;;13.57;86.59;101464.56;5020532;28;20037;-80
2021/09/17 02:13:41;;;;;;;26.63;17.20;;;;;;;13.57;86.67;101458.56;5017984;28;20504;-80
2021/09/17 02:16:07;;;;;;;32.65;18.33;;;;;;;13.56;86.74;101462.13;5017745;28;20129;-80
2021/09/17 02:18:32;;;;;;;27.40;16.52;;;;;;;13.56;86.63;101465.56;4999342;28;20025;-80
2021/09/17 02:20:58;;;;;;;30.63;19.15;;;;;;;13.58;86.83;101468.00;5036859;28;20033;-80
2021/09/17 02:23:23;;;;;;;32.72;20.00;;;;;;;13.57;86.80;101467.19;5015964;28;20060;-80
2021/09/17 02:25:49;;;;;;;31.92;19.63;;;;;;;13.57;87.11;101469.78;5018962;28;20087;-80
2021/09/17 02:28:14;;;;;;;29.52;19.25;;;;;;;13.57;87.29;101466.38;5012339;28;20080;-79
2021/09/17 02:30:40;;;;;;;30.90;19.38;;;;;;;13.57;87.48;101466.38;5015749;28;20026;-79
2021/09/17 02:33:05;;;;;;;30.05;18.83;;;;;;;13.56;87.35;101470.78;5019990;28;20454;-79
2021/09/17 02:35:31;;;;;;;34.80;18.85;;;;;;;13.57;87.45;101464.56;5020879;28;20030;-79
2021/09/17 02:37:56;;;;;;;35.03;20.98;;;;;;;13.57;87.40;101468.97;5002171;28;20437;-79
2021/09/17 02:40:22;;;;;;;31.08;18.88;;;;;;;13.58;87.58;101466.22;5017917;28;20037;-79
2021/09/17 02:42:47;;;;;;;30.85;19.38;;;;;;;13.58;87.71;101463.63;5019778;28;20036;-80
2021/09/17 02:45:14;;;;;;;31.40;18.77;;;;;;;13.59;87.90;101459.22;5035728;28;20022;-80
2021/09/17 02:47:40;;;;;;;34.85;21.00;;;;;;;13.57;88.01;101455.94;5014589;28;20064;-79
2021/09/17 02:50:07;;;;;;;34.83;20.35;;;;;;;13.56;88.09;101459.53;5019705;28;20028;-78
2021/09/17 02:52:33;;;;;;;39.75;22.65;;;;;;;13.57;87.87;101453.34;5023111;28;20309;-79
2021/09/17 02:54:58;;;;;;;30.63;19.08;;;;;;;13.54;87.80;101453.66;5008328;28;20030;-79
2021/09/17 02:57:24;;;;;;;30.63;19.40;;;;;;;13.53;88.14;101455.44;5014771;28;20033;-79
2021/09/17 02:59:50;;;;;;;32.40;19.20;;;;;;;13.52;87.81;101453.00;5006799;28;20037;-80
2021/09/17 03:02:15;;;;;;;34.47;21.33;;;;;;;13.51;87.70;101449.59;5018113;28;20053;-79
2021/09/17 03:04:41;;;;;;;33.15;18.98;;;;;;;13.52;87.27;101445.19;5014624;28;20029;-79
2021/09/17 03:07:07;;;;;;;30.40;19.30;;;;;;;13.53;87.42;101436.41;5021927;28;20053;-79
2021/09/17 03:09:33;;;;;;;33.10;19.58;;;;;;;13.53;87.09;101436.41;5005669;28;20037;-79
2021/09/17 03:12:00;;;;;;;30.67;19.98;;;;;;;13.55;86.90;101434.47;5018357;28;20038;-79
2021/09/17 03:14:25;;;;;;;31.38;18.25;;;;;;;13.57;86.70;101437.72;5023088;28;20037;-79
2021/09/17 03:16:51;;;;;;;32.10;20.13;;;;;;;13.57;86.55;101438.53;5010928;28;20220;-79
2021/09/17 03:19:17;;;;;;;32.00;19.50;;;;;;;13.58;86.56;101437.56;5011601;28;20041;-79
2021/09/17 03:21:42;;;;;;;36.30;19.58;;;;;;;13.59;86.48;101433.16;5025053;28;20035;-79
2021/09/17 03:24:08;;;;;;;31.05;18.30;;;;;;;13.59;86.35;101428.75;5016493;28;20083;-79
2021/09/17 03:26:34;;;;;;;29.98;18.08;;;;;;;13.58;86.38;101437.56;5019434;28;20034;-79
2021/09/17 03:29:00;;;;;;;29.98;18.08;;;;;;;13.59;86.68;101436.56;5033381;28;20243;-78
2021/09/17 03:31:26;;;;;;;35.05;19.77;;;;;;;13.59;86.83;101433.16;5034400;28;20029;-78
2021/09/17 03:33:51;;;;;;;27.55;16.95;;;;;;;13.60;86.72;101433.00;4998138;28;20514;-78
2021/09/17 03:36:17;;;;;;;32.67;18.77;;;;;;;13.59;86.82;101430.56;5013212;28;20052;-79
2021/09/17 03:38:42;;;;;;;30.92;17.75;;;;;;;13.60;86.76;101421.78;4998896;28;20673;-79
2021/09/17 03:41:08;;;;;;;30.95;18.35;;;;;;;13.60;86.79;101421.78;5003642;28;20399;-79
2021/09/17 03:43:34;;;;;;;30.90;19.30;;;;;;;13.59;87.13;101418.31;5021959;28;20034;-79
2021/09/17 03:45:59;;;;;;;30.48;18.05;;;;;;;13.60;87.39;101419.16;5037927;28;20045;-77
2021/09/17 03:48:25;;;;;;;30.48;18.83;;;;;;;13.60;87.26;101421.78;5015224;28;20037;-77
2021/09/17 03:50:50;;;;;;;30.50;18.85;;;;;;;13.60;87.17;101414.75;5024423;28;20079;-80
2021/09/17 03:53:16;;;;;;;29.80;18.40;;;;;;;13.61;86.94;101418.19;5008298;28;20033;-79
2021/09/17 03:55:42;;;;;;;30.77;18.73;;;;;;;13.61;86.84;101408.56;5020721;28;20021;-77
2021/09/17 03:58:08;;;;;;;32.28;18.80;;;;;;;13.61;86.67;101413.78;5015601;28;20383;-78
2021/09/17 04:00:34;;;;;;;28.80;17.45;;;;;;;13.62;86.59;101425.03;5016513;28;20025;-79
2021/09/17 04:03:00;;;;;;;30.05;16.95;;;;;;;13.62;86.77;101420.63;5025858;28;20075;-79
2021/09/17 04:05:25;;;;;;;30.85;17.95;;;;;;;13.62;86.58;101417.22;5038412;28;20450;-78
2021/09/17 04:07:51;;;;;;;26.17;16.27;;;;;;;13.62;86.58;101419.81;5007732;28;20029;-78
2021/09/17 04:10:18;;;;;;;29.65;18.40;;;;;;;13.62;86.66;101417.22;5020969;28;20087;-79
2021/09/17 04:12:44;;;;;;;32.10;18.38;;;;;;;13.63;86.71;101411.00;5038880;28;20460;-78
2021/09/17 04:15:11;;;;;;;29.95;17.05;;;;;;;13.62;86.70;101412.81;5012049;28;20034;-79
2021/09/17 04:17:36;;;;;;;32.63;18.17;;;;;;;13.63;86.85;101416.22;5012458;28;20091;-80
2021/09/17 04:20:04;;;;;;;30.85;17.42;;;;;;;13.63;86.90;101414.41;5014190;28;20041;-79
2021/09/17 04:22:29;;;;;;;28.48;17.65;;;;;;;13.62;86.97;101406.78;5013976;28;20108;-78
2021/09/17 04:24:55;;;;;;;30.35;17.45;;;;;;;13.60;87.07;101414.75;5012555;28;20125;-80
2021/09/17 04:27:21;;;;;;;32.28;17.52;;;;;;;13.60;87.34;101411.34;5004849;28;20083;-79
2021/09/17 04:29:47;;;;;;;31.75;17.50;;;;;;;13.59;87.61;101409.69;5004634;28;20107;-79
2021/09/17 04:32:12;;;;;;;32.60;18.80;;;;;;;13.58;87.80;101416.72;4997704;28;20049;-78
2021/09/17 04:34:38;;;;;;;29.50;18.05;;;;;;;13.58;87.83;101415.88;4999244;28;20036;-78
2021/09/17 04:37:03;;;;;;;23.50;15.75;;;;;;;13.57;87.89;101416.88;5022965;28;20048;-77
2021/09/17 04:39:29;;;;;;;30.10;17.67;;;;;;;13.58;87.92;101413.28;5018328;28;20098;-78
2021/09/17 04:41:54;;;;;;;31.08;17.70;;;;;;;13.58;88.16;101415.88;5000950;28;20064;-78
2021/09/17 04:44:20;;;;;;;32.47;18.80;;;;;;;13.63;88.17;101408.41;4992850;28;20017;-79
2021/09/17 04:46:45;;;;;;;27.08;17.33;;;;;;;13.60;88.25;101419.16;5017171;28;20033;-80
2021/09/17 04:49:11;;;;;;;34.25;20.13;;;;;;;13.62;88.61;101412.00;5012199;28;20034;-79
2021/09/17 04:51:36;;;;;;;32.17;18.23;;;;;;;13.60;88.53;101419.16;4997210;28;20494;-79
2021/09/17 04:54:02;;;;;;;30.33;17.70;;;;;;;13.59;88.59;101407.09;5014119;28;20068;-78
2021/09/17 04:56:27;;;;;;;33.47;19.25;;;;;;;13.58;88.37;101413.28;5012094;28;20483;-78
2021/09/17 04:58:52;;;;;;;28.85;17.25;;;;;;;13.58;88.29;101415.88;5013134;28;20048;-79
2021/09/17 05:01:18;;;;;;;31.25;18.30;;;;;;;13.58;88.32;101408.91;5007520;28;20025;-76
2021/09/17 05:03:44;;;;;;;32.13;19.42;;;;;;;13.58;88.18;101411.50;5015893;28;20029;-77
2021/09/17 05:06:10;;;;;;;25.52;16.90;;;;;;;13.59;88.26;101415.72;5016339;28;20380;-77
2021/09/17 05:08:36;;;;;;;26.75;16.45;;;;;;;13.59;88.14;101420.94;5010305;28;20044;-77
2021/09/17 05:11:02;;;;;;;29.77;16.73;;;;;;;13.60;87.97;101425.19;5011451;28;20116;-77
2021/09/17 05:13:27;;;;;;;35.80;17.80;;;;;;;13.61;87.73;101424.19;5018923;28;20427;-79
2021/09/17 05:15:53;;;;;;;33.15;17.45;;;;;;;13.61;87.84;101415.56;5001077;28;20044;-78
2021/09/17 05:18:18;;;;;;;31.88;17.33;;;;;;;13.62;88.09;101417.22;5011951;28;20478;-78
2021/09/17 05:20:44;;;;;;;33.30;18.20;;;;;;;13.62;88.18;101420.63;4999258;28;20029;-78
2021/09/17 05:23:09;;;;;;;34.17;17.80;;;;;;;13.62;88.18;101420.63;5015157;28;20502;-78
2021/09/17 05:25:35;;;;;;;36.10;17.55;;;;;;;13.62;88.34;101414.59;4996195;28;20044;-77
2021/09/17 05:28:00;;;;;;;33.88;17.55;;;;;;;13.61;88.36;101424.19;5029727;28;20372;-77
2021/09/17 05:30:26;;;;;;;30.70;17.20;;;;;;;13.60;88.43;101425.19;5011578;28;20029;-76
2021/09/17 05:32:51;;;;;;;24.85;15.18;;;;;;;13.60;88.35;101419.97;4997987;28;20357;-78
2021/09/17 05:35:17;;;;;;;36.38;21.23;;;;;;;13.59;88.54;101413.13;5011534;28;20032;-81
2021/09/17 05:37:42;;;;;;;32.72;17.95;;;;;;;13.57;88.59;101415.06;5022779;28;20510;-77
2021/09/17 05:40:09;;;;;;;34.28;19.45;;;;;;;13.59;88.58;101422.72;5011051;28;20040;-77
2021/09/17 05:42:35;;;;;;;32.13;17.88;;;;;;;13.60;88.59;101424.38;4994503;28;20099;-77
2021/09/17 05:45:00;;;;;;;36.80;20.60;;;;;;;13.63;88.63;101421.44;5018932;28;20017;-77
2021/09/17 05:47:26;;;;;;;36.95;21.17;;;;;;;13.65;88.80;101424.69;5010461;28;20446;-79
2021/09/17 05:49:51;;;;;;;41.47;20.70;;;;;;;13.63;89.09;101418.81;5011361;28;20024;-78
2021/09/17 05:52:17;;;;;;;33.25;19.98;;;;;;;13.60;89.11;101425.19;5014751;28;20037;-78
2021/09/17 05:54:43;;;;;;;39.70;21.88;;;;;;;13.62;89.46;101425.03;5009727;28;20385;-77
2021/09/17 05:57:08;;;;;;;38.85;23.02;;;;;;;13.62;89.49;101420.63;5010913;28;20048;-78
2021/09/17 05:59:34;;;;;;;41.22;21.67;;;;;;;13.63;89.46;101427.44;4996111;28;20021;-78
2021/09/17 06:02:00;;;;;;;37.28;20.83;;;;;;;13.65;89.44;101423.88;5017070;28;20025;-78
2021/09/17 06:04:25;;;;;;;35.00;19.92;;;;;;;13.66;89.60;101431.53;5010911;28;20025;-77
2021/09/17 06:06:50;;;;;;;34.97;22.17;;;;;;;13.67;89.27;101419.31;4996282;28;20387;-76
2021/09/17 06:09:17;;;;;;;37.75;23.73;;;;;;;13.69;89.16;101426.00;5010813;28;20106;-77
2021/09/17 06:11:42;;;;;;;33.08;21.05;;;;;;;13.71;89.17;101428.44;5017394;28;20037;-78
2021/09/17 06:14:08;;;;;;;34.35;20.23;;;;;;;13.74;89.09;101430.75;4995240;28;20029;-77
2021/09/17 06:16:34;;;;;;;30.88;19.27;;;;;;;13.76;88.88;101423.56;4998359;28;20433;-77
2021/09/17 06:19:03;;;;;;;39.22;21.92;;;;;;;13.78;88.58;101416.41;5013496;28;20026;-77
2021/09/17 06:21:33;;;;;;;35.15;20.50;;;;;;;13.82;88.74;101417.69;5002969;28;20375;-77
2021/09/17 06:23:59;;;;;;;39.50;23.98;;;;;;;13.85;88.58;101413.97;4999379;28;20056;-77
2021/09/17 06:26:30;;;;;;;42.22;24.20;;;;;;;13.87;88.74;101418.03;5029549;28;20108;-79
2021/09/17 06:29:00;;;;;;;36.75;22.10;;;;;;;13.90;88.75;101419.50;5011046;28;20037;-78
2021/09/17 06:31:27;;;;;;;38.70;21.50;;;;;;;13.92;88.78;101412.31;5035015;28;20026;-77
2021/09/17 06:33:52;;;;;;;44.83;23.30;;;;;;;13.97;88.35;101412.66;5012026;28;20144;-77
2021/09/17 06:36:18;;;;;;;32.38;20.48;;;;;;;13.98;88.34;101412.50;4997205;28;20033;-76
2021/09/17 06:38:43;;;;;;;36.35;21.98;;;;;;;14.02;88.42;101407.78;5019781;28;20025;-78
2021/09/17 06:41:09;;;;;;;32.38;20.30;;;;;;;14.05;88.29;101406.63;5028841;28;20034;-76
2021/09/17 06:43:34;;;;;;;31.48;21.10;;;;;;;14.06;88.28;101403.84;5012167;28;20494;-76
2021/09/17 06:46:00;;;;;;;32.70;20.02;;;;;;;14.08;88.29;101407.09;5010382;28;20033;-79
2021/09/17 06:48:25;;;;;;;38.00;21.83;;;;;;;14.14;88.25;101405.63;5026910;28;20036;-79
2021/09/17 06:50:51;;;;;;;35.20;20.77;;;;;;;14.17;88.54;101405.31;5010313;28;20048;-78
2021/09/17 06:53:16;;;;;;;49.00;23.75;;;;;;;14.20;88.54;101408.41;5021087;28;20034;-78
2021/09/17 06:55:42;;;;;;;39.13;24.08;;;;;;;14.25;88.75;101412.31;5018671;28;20537;-78
2021/09/17 06:58:07;;;;;;;35.67;21.75;;;;;;;14.29;89.17;101406.59;5028533;28;20509;-77
2021/09/17 07:00:35;;;;;;;38.05;22.33;;;;;;;14.31;89.15;101409.03;5003940;28;20079;-78
2021/09/17 07:03:01;;;;;;;42.58;25.52;;;;;;;14.35;88.37;101419.00;5028803;28;20547;-78
2021/09/17 07:05:28;;;;;;;37.72;22.65;;;;;;;14.36;88.03;101411.97;5020918;28;20041;-77
2021/09/17 07:08:04;;;;;;;35.50;21.15;;;;;;;14.37;87.74;101404.00;5021810;28;20300;-79
2021/09/17 07:10:31;;;;;;;33.65;21.48;;;;;;;14.40;87.59;101410.66;4997194;28;20033;-77
2021/09/17 07:12:57;;;;;;;37.67;23.02;;;;;;;14.43;87.53;101399.91;5013855;28;20026;-77
2021/09/17 07:15:23;;;;;;;40.65;24.77;;;;;;;14.47;87.67;101405.59;5031177;28;20018;-77
2021/09/17 07:17:49;;;;;;;41.35;24.50;;;;;;;14.51;87.69;101397.25;5041349;28;20038;-76
2021/09/17 07:20:14;;;;;;;34.60;21.67;;;;;;;14.54;87.60;101396.09;5009148;28;20056;-77
2021/09/17 07:22:40;;;;;;;32.38;22.40;;;;;;;14.56;87.72;101394.97;5023804;28;20130;-78
2021/09/17 07:25:06;;;;;;;35.38;22.75;;;;;;;14.57;87.95;101399.22;5036615;28;20394;-78
2021/09/17 07:27:31;;;;;;;43.40;24.15;;;;;;;14.59;87.72;101396.44;5013973;28;20139;-77
2021/09/17 07:29:57;;;;;;;37.45;22.85;;;;;;;14.60;87.58;101398.91;5000967;28;20042;-77
2021/09/17 07:32:23;;;;;;;35.92;21.35;;;;;;;14.63;87.65;101391.72;5032241;28;20042;-77
2021/09/17 07:34:49;;;;;;;36.10;22.27;;;;;;;14.64;87.37;101396.78;5038205;28;20029;-76
2021/09/17 07:37:14;;;;;;;38.40;22.17;;;;;;;14.67;87.57;101399.03;5020917;28;20029;-77
2021/09/17 07:39:40;;;;;;;33.85;20.98;;;;;;;14.70;87.39;101403.13;5013678;28;20033;-77
2021/09/17 07:42:07;;;;;;;31.38;21.27;;;;;;;14.72;87.49;101401.16;5017111;28;20371;-77
2021/09/17 07:44:34;;;;;;;36.30;23.38;;;;;;;14.76;87.48;101403.25;5026972;28;20041;-77
2021/09/17 07:47:01;;;;;;;36.63;21.95;;;;;;;14.79;87.77;101402.09;5003085;28;20458;-77
2021/09/17 07:49:27;;;;;;;30.25;19.75;;;;;;;14.82;88.17;101401.75;5025338;28;20048;-77
2021/09/17 07:51:52;;;;;;;33.47;20.35;;;;;;;14.86;88.43;101395.22;5013022;28;20038;-76
2021/09/17 07:54:18;;;;;;;35.30;21.05;;;;;;;14.88;88.45;101400.25;5012563;28;20449;-78
2021/09/17 07:56:43;;;;;;;47.30;25.40;;;;;;;14.92;88.37;101391.13;5016600;28;20037;-76
2021/09/17 07:59:09;;;;;;;45.95;26.05;;;;;;;14.91;87.97;101387.69;5031090;28;20041;-77
2021/09/17 08:01:34;;;;;;;42.42;26.63;;;;;;;14.99;87.33;101381.59;5012743;28;20052;-77
2021/09/17 08:04:00;;;;;;;43.28;25.45;;;;;;;15.10;87.26;101380.41;5002270;28;20040;-78
2021/09/17 08:06:25;;;;;;;42.88;25.27;;;;;;;15.15;87.25;101381.53;4997907;28;20025;-78
2021/09/17 08:08:51;;;;;;;37.03;20.80;;;;;;;15.17;87.12;101383.97;5029978;28;20048;-77
2021/09/17 08:11:16;;;;;;;40.45;24.77;;;;;;;15.22;86.85;101383.44;5031081;28;20025;-77
2021/09/17 08:13:42;;;;;;;35.90;20.80;;;;;;;15.33;86.26;101381.28;5037368;28;20446;-77
2021/09/17 08:16:07;;;;;;;49.72;24.58;;;;;;;15.44;84.91;101374.00;5017387;28;20037;-76
2021/09/17 08:18:33;;;;;;;40.70;23.90;;;;;;;15.60;84.54;101384.34;5003001;28;20060;-76
2021/09/17 08:20:58;;;;;;;45.25;25.67;;;;;;;15.83;83.10;101383.56;5015048;28;20025;-78
2021/09/17 08:23:25;;;;;;;37.92;24.20;;;;;;;16.04;82.05;101385.50;5012397;28;20667;-77
2021/09/17 08:25:51;;;;;;;44.35;24.83;;;;;;;16.44;81.03;101396.53;5021940;28;20164;-76
2021/09/17 08:28:18;;;;;;;44.42;22.67;;;;;;;16.69;79.71;101400.50;5009964;28;20120;-78
2021/09/17 08:30:43;;;;;;;43.97;23.05;;;;;;;16.87;79.37;101400.16;5034703;28;20037;-78
2021/09/17 08:33:09;;;;;;;33.50;21.08;;;;;;;17.12;78.42;101403.28;5005189;28;20498;-75
2021/09/17 08:35:37;;;;;;;41.33;22.15;;;;;;;17.37;76.15;101410.00;5012075;28;20082;-77
2021/09/17 08:38:04;;;;;;;36.72;22.00;;;;;;;17.63;75.08;101404.16;5029016;28;20029;-78
2021/09/17 08:40:31;;;;;;;35.05;21.17;;;;;;;17.81;73.98;101407.16;5012754;28;20022;-76
2021/09/17 08:43:00;;;;;;;36.80;21.27;;;;;;;17.92;73.69;101400.63;5002157;28;20071;-76
2021/09/17 08:45:28;;;;;;;33.17;21.83;;;;;;;17.98;73.51;101394.59;5019061;28;20478;-76
2021/09/17 08:47:54;;;;;;;34.88;20.85;;;;;;;18.03;73.31;101405.34;5035984;28;20044;-77
2021/09/17 08:50:21;;;;;;;31.98;19.52;;;;;;;18.07;73.76;101395.28;5011938;28;20022;-75
2021/09/17 08:52:48;;;;;;;27.08;18.42;;;;;;;18.23;73.28;101396.81;4999707;28;20033;-76
2021/09/17 08:55:15;;;;;;;31.30;21.20;;;;;;;18.30;72.42;101397.66;5017621;28;20033;-75
2021/09/17 08:57:47;;;;;;;32.90;20.65;;;;;;;18.44;71.90;101396.75;5011762;28;20033;-76
2021/09/17 09:00:25;;;;;;;34.92;20.25;;;;;;;18.54;70.92;101398.22;5003318;28;20033;-76
2021/09/17 09:02:54;;;;;;;31.05;18.50;;;;;;;18.39;71.75;101396.50;5004015;28;20120;-75
2021/09/17 09:05:26;;;;;;;30.63;19.45;;;;;;;18.46;71.20;101396.56;5015513;28;20045;-76
2021/09/17 09:07:52;;;;;;;27.83;17.93;;;;;;;18.64;70.82;101401.28;5012191;28;20503;-76
2021/09/17 09:10:17;;;;;;;30.65;19.65;;;;;;;19.31;69.85;101398.91;5003726;28;20528;-76
2021/09/17 09:12:49;;;;;;;30.15;19.75;;;;;;;19.82;67.63;101393.13;5029169;28;20038;-77
2021/09/17 09:15:17;;;;;;;25.98;17.05;;;;;;;20.25;65.25;101397.94;5022380;28;20403;-78
2021/09/17 09:17:47;;;;;;;32.90;19.80;;;;;;;20.52;63.46;101401.31;5021377;28;20449;-77
2021/09/17 09:20:51;;;;;;;33.15;19.65;;;;;;;20.63;62.17;101394.63;5019020;28;20064;-77
2021/09/17 09:23:21;;;;;;;27.65;18.95;;;;;;;20.63;62.42;101392.00;5022402;28;20049;-77
2021/09/17 09:25:57;;;;;;;29.50;18.75;;;;;;;20.79;62.51;101385.44;5011318;28;20083;-77
2021/09/17 09:28:30;;;;;;;32.72;19.08;;;;;;;20.79;61.59;101391.53;5036530;28;20277;-76
2021/09/17 09:30:57;;;;;;;;;;;;;;;20.73;62.04;101391.53;5000131;28;20032;-77
2021/09/17 09:33:37;;;;;;;27.65;18.00;;;;;;;20.92;63.66;101384.56;5017438;28;19913;-78
2021/09/17 09:36:07;;;;;;;33.75;19.52;;;;;;;21.05;62.62;101388.97;5030052;28;20034;-76
2021/09/17 09:38:46;;;;;;;29.58;17.88;;;;;;;21.09;60.69;101384.88;4994116;28;20132;-77
2021/09/17 09:41:17;;;;;;;28.83;16.17;;;;;;;21.00;61.18;101381.66;5034527;28;20059;-77
2021/09/17 09:43:58;;;;;;;26.98;16.25;;;;;;;21.00;61.76;101379.88;5021083;28;20040;-77
2021/09/17 09:46:29;;;;;;;26.05;16.67;;;;;;;20.78;62.12;101382.00;5021501;28;20108;-77
2021/09/17 09:49:14;;;;;;;22.30;15.30;;;;;;;20.86;62.03;101391.47;5018624;28;20029;-78
2021/09/17 09:51:41;;;;;;;24.65;15.02;;;;;;;20.89;61.61;101390.25;5019546;28;20029;-77
2021/09/17 09:54:09;;;;;;;22.65;14.68;;;;;;;20.80;61.25;101379.94;5034049;28;20187;-77
2021/09/17 09:56:37;;;;;;;22.38;14.65;;;;;;;20.88;62.04;101386.81;5010786;28;20037;-76
2021/09/17 09:59:07;;;;;;;23.77;13.45;;;;;;;21.00;61.81;101386.94;5005805;28;20021;-78
2021/09/17 10:01:36;;;;;;;23.70;14.77;;;;;;;21.19;61.94;101379.94;5028997;28;20079;-76
2021/09/17 10:04:03;;;;;;;21.38;14.30;;;;;;;21.31;60.20;101374.81;5003742;28;20026;-77
2021/09/17 10:06:37;;;;;;;21.77;13.10;;;;;;;21.42;60.66;101383.84;5028170;28;20088;-77
2021/09/17 10:09:05;;;;;;;19.25;12.65;;;;;;;21.71;61.14;101382.44;4998508;28;20029;-78
2021/09/17 10:11:32;;;;;;;19.85;12.93;;;;;;;21.68;60.88;101377.59;5010723;28;20029;-77
2021/09/17 10:14:00;;;;;;;25.13;13.60;;;;;;;21.79;60.34;101371.59;5014604;28;20043;-77
2021/09/17 10:16:28;;;;;;;23.77;13.77;;;;;;;21.84;60.04;101369.13;5015042;28;20025;-76
2021/09/17 10:18:55;;;;;;;23.35;14.70;;;;;;;21.84;59.61;101374.41;5011768;28;20041;-77
2021/09/17 10:21:45;;;;;;;20.35;12.38;;;;;;;21.67;60.34;101373.34;5015507;28;20028;-77
2021/09/17 10:24:26;;;;;;;23.00;14.32;;;;;;;21.47;60.46;101371.66;4993591;28;20041;-77
2021/09/17 10:27:16;;;;;;;21.95;13.65;;;;;;;21.45;60.18;101373.72;5014925;28;20403;-77
2021/09/17 10:29:44;;;;;;;26.85;14.32;;;;;;;21.41;61.16;101371.69;5028542;28;20116;-78
2021/09/17 10:32:39;;;;;;;23.88;13.80;;;;;;;21.56;61.49;101369.56;5037927;28;20463;-77
2021/09/17 10:35:10;;;;;;;20.30;12.85;;;;;;;21.52;62.21;101369.19;5036641;28;20403;-76
2021/09/17 10:37:52;;;;;;;27.48;14.68;;;;;;;21.46;61.69;101372.69;5022148;28;20483;-78
2021/09/17 10:40:32;;;;;;;24.20;14.35;;;;;;;21.50;62.37;101375.72;5025367;28;20033;-78
2021/09/17 10:43:10;;;;;;;25.02;14.32;;;;;;;21.45;60.82;101370.28;5037470;28;20487;-75
2021/09/17 10:46:00;;;;;;;24.77;13.65;;;;;;;21.47;61.91;101369.03;5001736;28;20053;-76
2021/09/17 10:48:28;;;;;;;21.98;13.82;;;;;;;21.69;60.96;101368.66;4991291;28;20037;-77
2021/09/17 10:51:03;;;;;;;23.20;13.52;;;;;;;21.91;60.28;101359.31;5030443;28;20080;-78
2021/09/17 10:53:41;;;;;;;24.35;13.57;;;;;;;21.91;61.32;101361.97;5046265;28;20029;-78
2021/09/17 10:56:14;;;;;;;23.42;13.77;;;;;;;21.89;60.07;101365.84;5008584;28;20113;-76
2021/09/17 10:58:40;;;;;;;23.17;13.35;;;;;;;21.78;59.28;101365.53;5017673;28;20043;-77
2021/09/17 11:01:09;;;;;;;23.58;13.02;;;;;;;21.80;60.04;101359.25;5040366;28;20039;-77
2021/09/17 11:03:48;;;;;;;21.42;12.57;;;;;;;21.92;59.18;101358.28;5020248;28;20479;-75
2021/09/17 11:09:00;;;;;;;22.77;14.45;;;;;;;22.17;57.99;101355.63;5024329;28;20030;-76
2021/09/17 11:11:31;;;;;;;22.60;13.00;;;;;;;22.26;57.17;101353.50;5025396;28;20044;-77
2021/09/17 11:14:02;;;;;;;25.65;13.65;;;;;;;21.87;58.48;101355.50;5011949;28;20029;-75